Time;durP1;ratioP1;P1;durP2;ratioP2;P2;SDS_P1;SDS_P2;PMS_P1;PMS_P2;Temp;Humidity;BMP_temperature;BMP_pressure;BME280_temperature;BME280_humidity;BME280_pressure;Samples;Min_cycle;Max_cycle;Signal;HPM_P1;HPM_P2
2021/03/03 12:56:56;;;;;;;21.77;12.68;;;;;;;;;;5088446;27;20316;-75
2021/03/03 12:59:22;;;;;;;22.23;12.70;;;;;;;;;;5088188;28;20029;-76
2021/03/03 13:01:48;;;;;;;28.63;13.30;;;;;;;;;;5087275;28;20059;-76
2021/03/03 13:04:14;;;;;;;24.83;13.90;;;;;;;;;;5088541;28;20020;-76
2021/03/03 13:06:40;;;;;;;27.88;14.00;;;;;;;;;;5086912;28;20032;-76
2021/03/03 13:09:06;;;;;;;25.00;13.73;;;;;;;;;;5088267;28;20032;-77
2021/03/03 13:11:32;;;;;;;20.35;13.02;;;;;;;;;;5086882;28;20415;-76
2021/03/03 13:13:58;;;;;;;23.25;13.00;;;;;;;;;;5084790;28;20549;-76
2021/03/03 13:16:24;;;;;;;26.85;12.73;;;16.80;92.10;;;;;;5088238;28;20028;-76
2021/03/03 13:18:49;;;;;;;27.85;14.15;;;19.10;84.20;;;;;;5087455;28;20396;-76
2021/03/03 13:21:17;;;;;;;23.25;14.35;;;18.50;82.60;;;;;;5082825;28;20024;-76
2021/03/03 13:23:43;;;;;;;22.40;14.02;;;18.30;83.30;;;;;;5087642;28;20024;-78
2021/03/03 13:26:09;;;;;;;27.08;13.95;;;18.40;82.40;;;;;;5085983;28;20051;-77
2021/03/03 13:28:35;;;;;;;23.90;13.75;;;18.00;83.10;;;;;;5088043;28;20103;-77
2021/03/03 13:31:01;;;;;;;24.23;13.43;;;17.60;84.60;;;;;;5085285;28;20579;-78
2021/03/03 13:33:27;;;;;;;25.83;14.05;;;17.70;84.30;;;;;;5087547;28;20516;-76
2021/03/03 13:35:53;;;;;;;23.80;13.93;;;18.50;87.10;;;;;;5087877;28;20365;-76
2021/03/03 13:38:19;;;;;;;25.45;14.18;;;17.00;87.00;;;;;;5082582;28;20024;-77
2021/03/03 13:40:44;;;;;;;22.92;13.65;;;16.90;87.10;;;;;;5085592;28;20033;-76
2021/03/03 13:43:11;;;;;;;24.38;14.45;;;16.70;88.70;;;;;;5087270;28;20031;-76
2021/03/03 13:45:38;;;;;;;24.23;14.38;;;16.80;89.20;;;;;;5086514;28;20119;-76
2021/03/03 13:48:04;;;;;;;25.30;13.55;;;17.10;88.80;;;;;;5094321;28;20407;-77
2021/03/03 13:50:30;;;;;;;23.08;14.60;;;17.30;88.50;;;;;;5087064;28;20097;-76
2021/03/03 13:52:55;;;;;;;27.10;14.25;;;18.30;88.00;;;;;;5087702;28;20485;-78
2021/03/03 13:55:21;;;;;;;27.55;13.75;;;17.20;88.50;;;;;;5086521;28;20036;-77
2021/03/03 13:57:47;;;;;;;29.73;15.45;;;17.10;88.20;;;;;;5088755;28;20477;-77
2021/03/03 14:00:13;;;;;;;26.98;14.77;;;17.10;89.20;;;;;;5100625;28;20028;-81
2021/03/03 14:02:39;;;;;;;24.70;15.20;;;16.40;90.40;;;;;;5105542;28;20058;-76
2021/03/03 14:05:06;;;;;;;29.77;16.50;;;16.20;90.90;;;;;;5106920;28;20031;-76
2021/03/03 14:07:31;;;;;;;27.92;14.57;;;15.70;91.50;;;;;;5093244;28;20138;-76
2021/03/03 14:09:57;;;;;;;34.05;15.23;;;15.80;91.80;;;;;;5081087;28;20039;-75
2021/03/03 14:12:23;;;;;;;26.17;15.30;;;15.90;92.40;;;;;;5074077;28;20031;-76
2021/03/03 14:14:49;;;;;;;30.52;14.80;;;15.40;92.80;;;;;;5074871;28;20033;-77
2021/03/03 14:17:14;;;;;;;25.90;14.10;;;15.10;93.30;;;;;;5073268;28;20024;-77
2021/03/03 14:19:42;;;;;;;25.88;14.75;;;15.20;93.30;;;;;;5075441;28;20035;-77
2021/03/03 14:22:08;;;;;;;31.75;15.13;;;15.30;93.70;;;;;;5072686;28;20473;-76
2021/03/03 14:24:33;;;;;;;28.60;14.27;;;15.00;94.10;;;;;;5074355;28;20032;-76
2021/03/03 14:26:59;;;;;;;28.27;14.20;;;15.00;94.00;;;;;;5074082;28;20096;-76
2021/03/03 14:29:25;;;;;;;31.02;14.48;;;15.00;94.10;;;;;;5074061;28;20036;-76
2021/03/03 14:31:50;;;;;;;25.02;14.50;;;14.90;94.20;;;;;;5070769;28;20393;-76
2021/03/03 14:34:16;;;;;;;28.85;14.75;;;15.20;94.30;;;;;;5048414;28;20036;-75
2021/03/03 14:36:42;;;;;;;23.65;13.77;;;14.90;94.30;;;;;;5071978;28;20036;-75
2021/03/03 14:39:08;;;;;;;25.02;14.32;;;14.80;94.30;;;;;;5073507;28;20074;-75
2021/03/03 14:41:34;;;;;;;27.33;14.70;;;14.60;95.10;;;;;;5070480;28;20038;-76
2021/03/03 14:43:59;;;;;;;24.08;14.13;;;14.80;94.60;;;;;;5072435;28;20028;-75
2021/03/03 14:46:25;;;;;;;24.30;14.80;;;15.20;94.50;;;;;;5072732;28;20033;-75
2021/03/03 14:48:52;;;;;;;26.83;15.25;;;16.10;93.80;;;;;;5070070;28;20036;-77
2021/03/03 14:51:19;;;;;;;26.92;14.52;;;15.50;93.40;;;;;;5068213;28;20103;-76
2021/03/03 14:53:44;;;;;;;27.40;14.57;;;15.50;93.50;;;;;;5074045;28;20037;-76
2021/03/03 14:56:10;;;;;;;23.00;14.13;;;15.20;94.20;;;;;;5071343;28;20040;-75
2021/03/03 14:58:36;;;;;;;27.70;13.95;;;15.30;94.40;;;;;;5072812;28;20032;-76
2021/03/03 15:01:02;;;;;;;29.85;15.13;;;14.90;94.00;;;;;;5058740;28;20021;-77
2021/03/03 15:03:28;;;;;;;31.15;15.38;;;14.50;94.80;;;;;;5070928;28;20041;-76
2021/03/03 15:05:54;;;;;;;26.58;14.52;;;14.60;95.20;;;;;;5067353;28;20028;-75
2021/03/03 15:08:19;;;;;;;30.25;15.27;;;14.60;95.80;;;;;;5068613;28;20039;-74
2021/03/03 15:10:45;;;;;;;26.33;15.18;;;15.10;96.60;;;;;;5070638;28;20081;-74
2021/03/03 15:13:11;;;;;;;29.83;15.25;;;12.80;96.10;;;;;;5071660;28;20389;-75
2021/03/03 15:15:41;;;;;;;25.92;15.25;;;14.40;96.70;;;;;;5071015;28;20050;-75
2021/03/03 15:18:08;;;;;;;29.33;14.15;;;14.70;96.90;;;;;;5071456;28;20028;-75
2021/03/03 15:20:34;;;;;;;29.42;15.07;;;14.20;97.10;;;;;;5067612;28;20031;-74
2021/03/03 15:22:59;;;;;;;31.55;14.70;;;14.20;96.90;;;;;;5070881;28;20571;-76
2021/03/03 15:25:25;;;;;;;25.33;14.68;;;15.00;97.50;;;;;;5071509;28;20177;-74
2021/03/03 15:27:51;;;;;;;33.60;15.20;;;14.00;97.70;;;;;;5071613;28;20025;-75
2021/03/03 15:30:17;;;;;;;27.55;15.00;;;14.30;97.80;;;;;;5068882;28;20494;-74
2021/03/03 15:32:43;;;;;;;30.40;14.43;;;13.90;97.60;;;;;;5069288;28;20024;-75
2021/03/03 15:35:09;;;;;;;26.73;14.70;;;13.80;98.20;;;;;;5071513;28;20362;-75
2021/03/03 15:37:36;;;;;;;28.00;13.82;;;13.80;98.30;;;;;;5062271;28;20382;-75
2021/03/03 15:40:03;;;;;;;23.50;14.45;;;13.90;98.70;;;;;;5068827;28;20020;-75
2021/03/03 15:42:28;;;;;;;27.40;14.35;;;15.70;99.20;;;;;;5060551;28;20028;-78
2021/03/03 15:44:54;;;;;;;27.67;13.90;;;13.90;99.30;;;;;;5068690;28;20100;-75
2021/03/03 15:47:20;;;;;;;26.25;14.10;;;14.40;99.70;;;;;;5067242;28;20043;-76
2021/03/03 15:49:45;;;;;;;27.38;15.10;;;14.70;99.90;;;;;;5069107;28;20037;-75
2021/03/03 15:52:11;;;;;;;29.83;14.52;;;13.70;99.90;;;;;;5066355;28;20452;-78
2021/03/03 15:54:37;;;;;;;25.73;14.57;;;15.20;99.90;;;;;;5068804;28;20032;-78
2021/03/03 15:57:02;;;;;;;27.67;14.90;;;13.70;99.90;;;;;;5043490;28;20041;-78
2021/03/03 15:59:28;;;;;;;28.98;15.05;;;13.50;99.90;;;;;;5069429;28;20082;-75
2021/03/03 16:01:54;;;;;;;28.67;15.07;;;14.40;99.90;;;;;;5064200;28;20024;-75
2021/03/03 16:04:19;;;;;;;29.50;14.63;;;14.40;99.90;;;;;;5071736;28;20025;-76
2021/03/03 16:06:45;;;;;;;35.10;13.98;;;13.90;99.90;;;;;;5071596;28;20504;-76
2021/03/03 16:09:10;;;;;;;32.03;15.18;;;13.30;99.90;;;;;;5071284;28;20027;-79
2021/03/03 16:11:37;;;;;;;29.70;15.07;;;13.50;99.90;;;;;;5066286;28;20029;-77
2021/03/03 16:14:03;;;;;;;26.88;15.18;;;13.30;99.90;;;;;;5072338;28;20401;-76
2021/03/03 16:16:29;;;;;;;28.35;14.90;;;13.20;99.90;;;;;;5072345;28;20027;-77
2021/03/03 16:18:55;;;;;;;27.63;14.25;;;14.00;99.90;;;;;;5072406;28;20024;-77
2021/03/03 16:21:20;;;;;;;29.27;15.23;;;13.90;99.90;;;;;;5065765;28;20029;-77
2021/03/03 16:23:46;;;;;;;26.27;14.32;;;13.30;99.90;;;;;;5073505;28;20036;-77
2021/03/03 16:26:12;;;;;;;30.88;15.43;;;14.70;99.90;;;;;;5076786;28;20028;-78
2021/03/03 16:28:37;;;;;;;33.40;14.75;;;12.90;99.90;;;;;;5071733;28;20385;-77
2021/03/03 16:31:03;;;;;;;29.88;14.88;;;13.00;99.90;;;;;;5071535;28;20039;-77
2021/03/03 16:33:29;;;;;;;29.40;15.23;;;12.80;99.90;;;;;;5071758;28;20127;-78
2021/03/03 16:35:54;;;;;;;28.42;14.60;;;14.00;99.90;;;;;;5073780;28;20024;-78
2021/03/03 16:38:30;;;;;;;27.00;14.73;;;12.90;99.90;;;;;;5071946;28;20059;-78
2021/03/03 16:40:58;;;;;;;27.98;14.80;;;12.60;99.90;;;;;;5072728;28;20025;-77
2021/03/03 16:43:23;;;;;;;28.80;14.13;;;12.60;99.90;;;;;;5071024;28;20008;-77
2021/03/03 16:45:49;;;;;;;28.42;15.07;;;12.70;99.90;;;;;;5073664;28;20024;-77
2021/03/03 16:48:15;;;;;;;28.77;14.60;;;14.40;99.90;;;;;;5074244;28;20036;-79
2021/03/03 16:50:41;;;;;;;26.55;14.43;;;12.50;99.90;;;;;;5076853;28;20150;-80
2021/03/03 16:53:07;;;;;;;30.92;14.85;;;12.60;99.90;;;;;;5073516;28;20093;-80
2021/03/03 16:55:34;;;;;;;28.95;13.93;;;12.60;99.90;;;;;;5076574;28;20646;-79
2021/03/03 16:58:01;;;;;;;31.48;15.02;;;13.00;99.90;;;;;;5074043;28;20074;-76
2021/03/03 17:00:27;;;;;;;27.08;13.05;;;12.20;99.90;;;;;;5071780;28;20078;-76
2021/03/03 17:02:52;;;;;;;28.48;14.10;;;13.20;99.90;;;;;;5070217;28;20028;-75
2021/03/03 17:05:18;;;;;;;28.25;13.48;;;13.20;99.90;;;;;;5071254;28;20036;-76
2021/03/03 17:07:45;;;;;;;25.55;15.05;;;12.10;99.90;;;;;;5071216;28;20056;-76
2021/03/03 17:10:12;;;;;;;32.72;14.85;;;12.30;99.90;;;;;;5071047;28;20039;-76
2021/03/03 17:12:39;;;;;;;25.55;13.35;;;12.00;99.90;;;;;;5070884;28;20563;-76
2021/03/03 17:15:07;;;;;;;27.20;14.65;;;12.90;99.90;;;;;;5074441;28;20024;-77
2021/03/03 17:17:35;;;;;;;32.40;14.77;;;11.80;99.90;;;;;;5070889;28;20028;-77
2021/03/03 17:20:01;;;;;;;30.17;14.43;;;13.30;99.90;;;;;;5075060;28;20025;-76
2021/03/03 17:22:26;;;;;;;26.90;14.75;;;11.80;99.90;;;;;;5068454;28;20024;-76
2021/03/03 17:24:52;;;;;;;28.08;13.55;;;12.00;99.90;;;;;;5069503;28;20024;-76
2021/03/03 17:27:18;;;;;;;24.77;13.15;;;13.50;99.90;;;;;;5071131;28;20383;-76
2021/03/03 17:29:44;;;;;;;30.48;14.43;;;13.00;99.90;;;;;;5070173;28;20073;-76
2021/03/03 17:32:10;;;;;;;27.00;13.70;;;12.00;99.90;;;;;;5070883;28;20084;-76
2021/03/03 17:34:35;;;;;;;27.25;13.60;;;11.90;99.90;;;;;;5071157;28;20133;-76
2021/03/03 17:37:01;;;;;;;23.92;13.05;;;11.90;99.90;;;;;;5070776;28;20493;-76
2021/03/03 17:39:27;;;;;;;26.80;12.90;;;11.90;99.90;;;;;;5071131;28;20021;-75
2021/03/03 17:41:52;;;;;;;29.27;13.52;;;11.90;99.90;;;;;;5069906;28;20096;-76
2021/03/03 17:44:18;;;;;;;32.70;13.85;;;12.20;99.90;;;;;;5075140;28;20082;-76
2021/03/03 17:46:43;;;;;;;23.48;12.95;;;12.10;99.90;;;;;;5076571;28;20028;-77
2021/03/03 17:49:09;;;;;;;25.38;12.50;;;13.70;99.90;;;;;;5071504;28;20604;-77
2021/03/03 17:51:35;;;;;;;28.15;13.45;;;11.90;99.90;;;;;;5071882;28;20505;-76
2021/03/03 17:54:00;;;;;;;24.08;13.23;;;12.10;99.90;;;;;;5071717;28;20683;-77
2021/03/03 17:56:26;;;;;;;25.98;12.80;;;12.50;99.90;;;;;;5072440;28;20064;-76
2021/03/03 17:58:51;;;;;;;21.27;12.48;;;13.70;99.90;;;;;;5072182;28;20431;-77
2021/03/03 18:01:17;;;;;;;25.67;12.35;;;11.80;99.90;;;;;;5076459;28;20020;-76
2021/03/03 18:03:42;;;;;;;24.38;12.70;;;11.70;99.90;;;;;;5078284;28;20021;-77
2021/03/03 18:06:08;;;;;;;23.25;12.90;;;11.80;99.90;;;;;;5073891;28;20132;-75
2021/03/03 18:08:34;;;;;;;23.42;12.90;;;11.60;99.90;;;;;;5074533;28;20078;-75
2021/03/03 18:10:59;;;;;;;28.92;12.40;;;11.80;99.90;;;;;;5074369;28;20033;-77
2021/03/03 18:13:25;;;;;;;27.85;13.02;;;11.60;99.90;;;;;;5068300;28;20028;-75
2021/03/03 18:15:51;;;;;;;24.00;12.10;;;11.60;99.90;;;;;;5065875;28;20032;-75
2021/03/03 18:18:16;;;;;;;26.15;13.63;;;11.40;99.90;;;;;;5061624;28;20029;-79
2021/03/03 18:20:42;;;;;;;30.67;14.70;;;11.40;99.90;;;;;;5070424;28;20013;-75
2021/03/03 18:23:08;;;;;;;23.40;12.00;;;13.20;99.90;;;;;;5070467;28;20028;-74
2021/03/03 18:25:34;;;;;;;20.65;11.43;;;11.50;99.90;;;;;;5073353;28;20033;-77
2021/03/03 18:27:59;;;;;;;21.67;11.77;;;12.10;99.90;;;;;;5069540;28;20024;-80
2021/03/03 18:30:26;;;;;;;24.00;11.88;;;11.40;99.90;;;;;;5069324;28;20632;-76
2021/03/03 18:32:51;;;;;;;23.52;11.48;;;12.10;99.90;;;;;;5069129;28;20027;-75
2021/03/03 18:35:18;;;;;;;21.10;11.95;;;11.40;99.90;;;;;;5070396;28;20123;-79
2021/03/03 18:37:44;;;;;;;23.73;11.43;;;13.20;99.90;;;;;;5069895;28;20021;-75
2021/03/03 18:40:12;;;;;;;24.10;11.60;;;11.40;99.90;;;;;;5072292;28;20024;-76
2021/03/03 18:42:39;;;;;;;27.45;12.23;;;11.40;99.90;;;;;;5072656;28;20382;-76
2021/03/03 18:45:06;;;;;;;24.00;12.07;;;11.40;99.90;;;;;;5072394;28;20029;-77
2021/03/03 18:47:32;;;;;;;24.40;12.25;;;11.50;99.90;;;;;;5073787;28;20024;-75
2021/03/03 18:49:57;;;;;;;22.17;10.88;;;11.80;99.90;;;;;;5073660;28;20028;-75
2021/03/03 18:52:23;;;;;;;21.70;10.90;;;10.80;99.90;;;;;;5072626;28;20056;-76
